createdAt,value
2022-11-19T00:00:32.385Z,-3.80
2022-11-19T00:03:22.466Z,-4.00
2022-11-19T00:06:12.353Z,-4.10
2022-11-19T00:09:01.022Z,-4.20
2022-11-19T00:12:05.381Z,-4.20
2022-11-19T00:14:52.487Z,-4.10
2022-11-19T00:17:40.084Z,-3.90
2022-11-19T00:20:27.841Z,-3.90
2022-11-19T00:23:15.005Z,-4.00
2022-11-19T00:26:08.422Z,-4.00
2022-11-19T00:28:56.040Z,-3.90
2022-11-19T00:31:43.394Z,-3.90
2022-11-19T00:34:30.758Z,-3.90
2022-11-19T00:37:18.220Z,-4.10
2022-11-19T00:40:07.839Z,-4.20
2022-11-19T00:43:13.713Z,-4.00
2022-11-19T00:46:00.932Z,-4.00
2022-11-19T00:48:49.456Z,-4.10
2022-11-19T00:51:36.732Z,-4.00
2022-11-19T00:54:23.869Z,-4.20
2022-11-19T00:57:11.232Z,-4.10
2022-11-19T00:59:59.902Z,-3.90
2022-11-19T01:02:47.117Z,-3.70
2022-11-19T01:05:34.432Z,-4.00
2022-11-19T01:08:21.961Z,-4.10
2022-11-19T01:11:11.277Z,-4.20
2022-11-19T01:13:59.873Z,-4.30
2022-11-19T01:16:48.697Z,-4.40
2022-11-19T01:19:35.932Z,-4.50
2022-11-19T01:22:23.341Z,-4.40
2022-11-19T01:25:11.083Z,-4.20
2022-11-19T01:27:58.742Z,-4.10
2022-11-19T01:30:46.199Z,-4.20
2022-11-19T01:33:35.055Z,-4.40
2022-11-19T01:36:23.751Z,-4.40
2022-11-19T01:39:10.960Z,-4.30
2022-11-19T01:41:58.361Z,-4.50
2022-11-19T01:45:01.111Z,-4.60
2022-11-19T01:47:48.726Z,-4.60
2022-11-19T01:50:41.928Z,-4.70
2022-11-19T01:53:32.029Z,-4.80
2022-11-19T01:56:23.735Z,-4.80
2022-11-19T01:59:15.311Z,-4.50
2022-11-19T02:02:02.671Z,-4.40
2022-11-19T02:04:52.476Z,-4.60
2022-11-19T02:07:46.113Z,-4.70
2022-11-19T02:10:41.434Z,-4.70
2022-11-19T02:13:33.814Z,-4.80
2022-11-19T02:16:28.661Z,-4.90
2022-11-19T02:19:38.640Z,-4.80
2022-11-19T02:22:44.778Z,-4.90
2022-11-19T02:25:46.655Z,-5.00
2022-11-19T02:28:39.259Z,-5.00
2022-11-19T02:31:35.172Z,-5.00
2022-11-19T02:34:28.506Z,-4.90
2022-11-19T02:37:22.388Z,-4.80
2022-11-19T02:40:16.163Z,-4.80
2022-11-19T02:43:12.194Z,-4.70
2022-11-19T02:46:04.383Z,-4.60
2022-11-19T02:48:54.733Z,-4.40
2022-11-19T02:51:42.118Z,-4.30
2022-11-19T02:54:29.881Z,-4.20
2022-11-19T02:57:17.337Z,-4.10
2022-11-19T03:00:24.888Z,-4.10
2022-11-19T03:03:32.052Z,-4.30
2022-11-19T03:06:24.309Z,-4.50
2022-11-19T03:09:12.291Z,-4.70
2022-11-19T03:12:08.946Z,-4.60
2022-11-19T03:15:16.462Z,-4.70
2022-11-19T03:18:11.353Z,-4.70
2022-11-19T03:21:05.621Z,-4.80
2022-11-19T03:23:59.637Z,-4.70
2022-11-19T03:26:50.475Z,-4.70
2022-11-19T03:29:41.254Z,-4.90
2022-11-19T03:32:33.834Z,-5.00
2022-11-19T03:35:26.728Z,-5.00
2022-11-19T03:38:17.772Z,-4.80
2022-11-19T03:41:08.181Z,-4.60
2022-11-19T03:43:59.585Z,-4.50
2022-11-19T03:46:51.084Z,-4.40
2022-11-19T03:49:42.521Z,-4.30
2022-11-19T03:52:30.327Z,-4.50
2022-11-19T03:55:18.010Z,-4.70
2022-11-19T03:58:08.428Z,-4.70
2022-11-19T04:00:55.695Z,-4.40
2022-11-19T04:04:03.477Z,-4.40
2022-11-19T04:06:50.996Z,-4.30
2022-11-19T04:09:39.001Z,-4.40
2022-11-19T04:12:26.920Z,-4.40
2022-11-19T04:15:16.225Z,-4.60
2022-11-19T04:18:03.501Z,-4.70
2022-11-19T04:20:51.040Z,-4.50
2022-11-19T04:23:38.480Z,-4.70
2022-11-19T04:26:25.640Z,-4.70
2022-11-19T04:29:13.200Z,-4.50
2022-11-19T04:32:01.839Z,-4.50
2022-11-19T04:34:49.554Z,-4.30
2022-11-19T04:37:36.885Z,-4.30
2022-11-19T04:40:24.328Z,-4.20
2022-11-19T04:43:11.844Z,-4.30
2022-11-19T04:45:59.261Z,-4.30
2022-11-19T04:48:47.898Z,-4.30
2022-11-19T04:51:35.137Z,-4.50
2022-11-19T04:54:22.712Z,-4.40
2022-11-19T04:57:10.052Z,-4.30
2022-11-19T04:59:57.374Z,-4.30
2022-11-19T05:02:45.578Z,-4.30
2022-11-19T05:05:34.452Z,-4.30
2022-11-19T05:08:21.516Z,-4.30
2022-11-19T05:11:08.887Z,-4.40
2022-11-19T05:13:56.344Z,-4.20
2022-11-19T05:16:43.861Z,-4.30
2022-11-19T05:19:31.256Z,-4.30
2022-11-19T05:22:20.159Z,-4.40
2022-11-19T05:25:07.685Z,-4.50
2022-11-19T05:27:54.921Z,-4.40
2022-11-19T05:30:42.185Z,-4.50
2022-11-19T05:33:33.766Z,-4.50
2022-11-19T05:36:21.681Z,-4.40
2022-11-19T05:39:10.722Z,-4.20
2022-11-19T05:41:58.105Z,-4.30
2022-11-19T05:44:45.394Z,-4.20
2022-11-19T05:47:32.919Z,-4.20
2022-11-19T05:50:20.275Z,-4.10
2022-11-19T05:53:10.455Z,-3.90
2022-11-19T05:55:58.866Z,-4.00
2022-11-19T05:58:46.217Z,-4.00
2022-11-19T06:01:33.648Z,-3.90
2022-11-19T06:04:21.069Z,-3.80
2022-11-19T06:07:08.521Z,-3.70
2022-11-19T06:09:55.720Z,-3.80
2022-11-19T06:12:45.946Z,-3.80
2022-11-19T06:15:33.460Z,-3.70
2022-11-19T06:18:20.765Z,-3.70
2022-11-19T06:21:12.056Z,-3.60
2022-11-19T06:23:59.705Z,-3.70
2022-11-19T06:26:47.164Z,-3.80
2022-11-19T06:29:36.172Z,-3.80
2022-11-19T06:32:23.486Z,-3.80
2022-11-19T06:35:14.111Z,-3.70
2022-11-19T06:38:01.590Z,-3.60
2022-11-19T06:40:49.014Z,-3.60
2022-11-19T06:43:36.269Z,-3.60
2022-11-19T06:46:24.973Z,-3.60
2022-11-19T06:49:18.434Z,-3.60
2022-11-19T06:52:07.501Z,-3.60
2022-11-19T06:54:55.339Z,-3.60
2022-11-19T06:57:42.500Z,-3.60
2022-11-19T07:00:30.027Z,-3.60
2022-11-19T07:03:18.718Z,-3.50
2022-11-19T07:06:07.088Z,-3.50
2022-11-19T07:08:54.399Z,-3.50
2022-11-19T07:11:42.069Z,-3.50
2022-11-19T07:14:29.466Z,-3.40
2022-11-19T07:17:16.784Z,-3.40
2022-11-19T07:20:06.975Z,-3.40
2022-11-19T07:22:58.915Z,-3.60
2022-11-19T07:25:46.618Z,-3.50
2022-11-19T07:28:36.192Z,-3.50
2022-11-19T07:31:24.522Z,-3.40
2022-11-19T07:34:12.286Z,-3.30
2022-11-19T07:37:01.076Z,-3.20
2022-11-19T07:39:48.266Z,-3.20
2022-11-19T07:42:50.810Z,-3.10
2022-11-19T07:45:38.996Z,-3.10
2022-11-19T07:48:26.333Z,-3.00
2022-11-19T07:51:14.330Z,-2.90
2022-11-19T07:54:03.359Z,-2.90
2022-11-19T07:56:50.614Z,-2.80
2022-11-19T07:59:37.834Z,-2.70
2022-11-19T08:02:25.159Z,-2.60
2022-11-19T08:05:12.864Z,-2.40
2022-11-19T08:08:00.099Z,-2.30
2022-11-19T08:10:48.988Z,-2.10
2022-11-19T08:13:37.192Z,-1.90
2022-11-19T08:16:41.577Z,-1.80
2022-11-19T08:19:28.559Z,-1.80
2022-11-19T08:22:15.857Z,-1.70
2022-11-19T08:25:03.330Z,-1.60
2022-11-19T08:27:52.119Z,-1.60
2022-11-19T08:30:40.913Z,-1.50
2022-11-19T08:33:28.089Z,-1.40
2022-11-19T08:36:14.900Z,-1.30
2022-11-19T08:39:03.965Z,-1.20
2022-11-19T08:42:08.558Z,-1.20
2022-11-19T08:44:57.069Z,-1.20
2022-11-19T08:47:44.319Z,-1.30
2022-11-19T08:50:32.172Z,-1.20
2022-11-19T08:53:19.286Z,-1.20
2022-11-19T08:56:06.863Z,-1.10
2022-11-19T08:58:59.878Z,-0.70
2022-11-19T09:01:51.277Z,-0.50
2022-11-19T09:04:38.824Z,-0.40
2022-11-19T09:07:26.055Z,-0.30
2022-11-19T09:10:13.399Z,0.10
2022-11-19T09:13:01.981Z,0.20
2022-11-19T09:15:49.533Z,0.10
2022-11-19T09:18:39.201Z,0.10
2022-11-19T09:21:26.348Z,0.10
2022-11-19T09:24:13.888Z,0.20
2022-11-19T09:27:02.984Z,0.20
2022-11-19T09:29:50.468Z,0.20
2022-11-19T09:32:37.856Z,0.10
2022-11-19T09:35:26.583Z,0.10
2022-11-19T09:38:13.818Z,0.00
2022-11-19T09:41:12.864Z,0.00
2022-11-19T09:44:12.473Z,0.00
2022-11-19T09:47:07.858Z,0.10
2022-11-19T09:50:06.068Z,0.30
2022-11-19T09:52:58.463Z,0.50
2022-11-19T09:55:48.255Z,0.50
2022-11-19T09:58:40.911Z,0.70
2022-11-19T10:01:30.358Z,0.80
2022-11-19T10:04:21.383Z,0.90
2022-11-19T10:07:18.103Z,1.00
2022-11-19T10:10:21.955Z,1.00
2022-11-19T10:13:33.464Z,1.00
2022-11-19T10:16:35.617Z,0.90
2022-11-19T10:19:36.237Z,0.80
2022-11-19T10:22:26.582Z,0.70
2022-11-19T10:25:18.845Z,0.80
2022-11-19T10:28:13.902Z,0.80
2022-11-19T10:31:08.356Z,0.80
2022-11-19T10:34:00.661Z,0.90
2022-11-19T10:36:51.577Z,1.00
2022-11-19T10:39:42.740Z,1.00
2022-11-19T10:42:36.493Z,1.00
2022-11-19T10:45:27.078Z,1.10
2022-11-19T10:48:21.022Z,1.00
2022-11-19T10:51:14.971Z,1.10
2022-11-19T10:54:08.313Z,1.10
2022-11-19T10:56:56.615Z,1.20
2022-11-19T10:59:46.678Z,1.20
2022-11-19T11:02:42.525Z,1.30
2022-11-19T11:05:30.988Z,1.40
2022-11-19T11:08:18.630Z,1.60
2022-11-19T11:11:06.141Z,1.70
2022-11-19T11:14:11.070Z,1.70
2022-11-19T11:16:59.833Z,1.80
2022-11-19T11:19:55.958Z,1.70
2022-11-19T11:22:43.925Z,1.70
2022-11-19T11:25:31.500Z,1.60
2022-11-19T11:28:21.093Z,1.70
2022-11-19T11:31:11.792Z,1.80
2022-11-19T11:34:02.207Z,1.90
2022-11-19T11:36:49.563Z,2.10
2022-11-19T11:39:40.119Z,2.30
2022-11-19T11:42:29.947Z,2.30
2022-11-19T11:45:23.744Z,2.40
2022-11-19T11:48:20.812Z,2.50
2022-11-19T11:51:23.338Z,2.50
2022-11-19T11:54:18.774Z,2.60
2022-11-19T11:57:18.320Z,2.50
2022-11-19T12:00:30.870Z,2.60
2022-11-19T12:03:19.926Z,2.60
2022-11-19T12:06:13.733Z,2.50
2022-11-19T12:09:07.214Z,2.40
2022-11-19T12:12:02.797Z,2.30
2022-11-19T12:14:59.265Z,2.30
2022-11-19T12:17:55.245Z,2.20
2022-11-19T12:20:52.688Z,2.30
2022-11-19T12:24:06.062Z,2.30
2022-11-19T12:27:01.870Z,2.30
2022-11-19T12:30:00.754Z,2.30
2022-11-19T12:33:20.682Z,2.50
2022-11-19T12:36:15.524Z,2.70
2022-11-19T12:39:14.290Z,2.70
2022-11-19T12:42:15.923Z,2.70
2022-11-19T12:45:08.052Z,2.60
2022-11-19T12:48:21.865Z,2.60
2022-11-19T12:51:19.480Z,2.80
2022-11-19T12:54:30.223Z,2.70
2022-11-19T12:57:37.003Z,2.80
2022-11-19T13:00:26.252Z,2.70
2022-11-19T13:03:19.083Z,2.80
2022-11-19T13:06:16.705Z,2.70
2022-11-19T13:09:09.716Z,2.60
2022-11-19T13:12:04.923Z,2.60
2022-11-19T13:14:56.536Z,2.60
2022-11-19T13:17:47.800Z,2.70
2022-11-19T13:20:44.881Z,2.80
2022-11-19T13:23:37.299Z,2.80
2022-11-19T13:26:28.155Z,2.70
2022-11-19T13:29:32.661Z,2.50
2022-11-19T13:32:25.126Z,2.50
2022-11-19T13:35:19.634Z,2.20
2022-11-19T13:38:16.625Z,2.30
2022-11-19T13:41:10.046Z,2.10
2022-11-19T13:44:15.448Z,2.00
2022-11-19T13:47:04.209Z,2.10
2022-11-19T13:49:55.705Z,2.00
2022-11-19T13:52:50.797Z,1.90
2022-11-19T13:55:40.158Z,2.00
2022-11-19T13:58:33.957Z,1.90
2022-11-19T14:01:46.038Z,1.90
2022-11-19T14:04:58.150Z,1.90
2022-11-19T14:08:03.616Z,1.90
2022-11-19T14:11:05.508Z,1.90
2022-11-19T14:14:28.591Z,1.80
2022-11-19T14:17:43.807Z,1.90
2022-11-19T14:20:58.658Z,1.80
2022-11-19T14:24:05.045Z,1.80
2022-11-19T14:27:04.011Z,1.70
2022-11-19T14:30:00.463Z,1.80
2022-11-19T14:32:53.030Z,1.80
2022-11-19T14:35:42.030Z,1.80
2022-11-19T14:38:37.597Z,1.80
2022-11-19T14:41:30.664Z,1.80
2022-11-19T14:44:35.847Z,1.90
2022-11-19T14:47:39.902Z,1.80
2022-11-19T14:50:29.568Z,1.70
2022-11-19T14:53:21.708Z,1.70
2022-11-19T14:56:12.932Z,1.60
2022-11-19T14:59:08.491Z,1.60
2022-11-19T15:01:59.913Z,1.50
2022-11-19T15:04:55.315Z,1.30
2022-11-19T15:07:45.549Z,1.30
2022-11-19T15:10:50.183Z,1.30
2022-11-19T15:13:39.100Z,1.20
2022-11-19T15:16:28.189Z,1.30
2022-11-19T15:19:36.843Z,1.20
2022-11-19T15:22:36.677Z,1.20
2022-11-19T15:25:35.424Z,1.10
2022-11-19T15:28:40.753Z,1.20
2022-11-19T15:31:44.950Z,1.20
2022-11-19T15:35:10.428Z,1.10
2022-11-19T15:38:03.518Z,1.00
2022-11-19T15:40:55.618Z,1.00
2022-11-19T15:43:51.694Z,1.00
2022-11-19T15:46:45.698Z,1.00
2022-11-19T15:49:35.332Z,1.00
2022-11-19T15:52:28.121Z,1.10
2022-11-19T15:55:20.781Z,1.00
2022-11-19T15:58:15.515Z,1.00
2022-11-19T16:01:04.786Z,1.00
2022-11-19T16:03:53.629Z,0.90
2022-11-19T16:06:46.623Z,1.00
2022-11-19T16:09:35.744Z,1.00
2022-11-19T16:12:42.195Z,0.90
2022-11-19T16:15:46.697Z,0.90
2022-11-19T16:18:35.192Z,0.90
2022-11-19T16:21:28.431Z,0.80
2022-11-19T16:24:36.671Z,0.90
2022-11-19T16:27:26.099Z,0.90
2022-11-19T16:30:24.685Z,0.80
2022-11-19T16:33:18.740Z,0.80
2022-11-19T16:36:14.834Z,0.90
2022-11-19T16:39:03.870Z,0.90
2022-11-19T16:42:15.319Z,0.90
2022-11-19T16:45:09.813Z,0.90
2022-11-19T16:47:58.519Z,0.80
2022-11-19T16:50:46.903Z,0.80
2022-11-19T16:53:47.935Z,0.90
2022-11-19T16:56:42.158Z,0.80
2022-11-19T16:59:29.698Z,0.80
2022-11-19T17:02:18.543Z,0.80
2022-11-19T17:05:09.001Z,0.80
2022-11-19T17:08:06.849Z,0.90
2022-11-19T17:11:38.041Z,0.80
2022-11-19T17:14:42.452Z,0.90
2022-11-19T17:17:39.968Z,0.80
2022-11-19T17:21:02.089Z,0.80
2022-11-19T17:23:51.948Z,0.80
2022-11-19T17:26:40.752Z,0.70
2022-11-19T17:29:28.145Z,0.80
2022-11-19T17:32:15.589Z,0.90
2022-11-19T17:35:03.357Z,0.90
2022-11-19T17:37:51.514Z,0.90
2022-11-19T17:40:40.322Z,0.90
2022-11-19T17:43:49.810Z,0.90
2022-11-19T17:46:36.909Z,0.90
2022-11-19T17:49:24.329Z,0.90
2022-11-19T17:52:21.594Z,0.90
2022-11-19T17:55:17.136Z,1.00
2022-11-19T17:58:04.365Z,0.80
2022-11-19T18:00:53.174Z,1.00
2022-11-19T18:03:40.516Z,0.90
2022-11-19T18:06:28.235Z,0.90
2022-11-19T18:09:15.647Z,0.90
2022-11-19T18:12:03.478Z,0.80
2022-11-19T18:14:50.797Z,0.90
2022-11-19T18:17:39.473Z,0.90
2022-11-19T18:20:26.766Z,0.90
2022-11-19T18:23:14.716Z,1.00
2022-11-19T18:26:02.068Z,1.00
2022-11-19T18:28:49.788Z,1.00
2022-11-19T18:31:43.081Z,1.00
2022-11-19T18:34:31.563Z,1.10
2022-11-19T18:37:18.811Z,1.10
2022-11-19T18:40:07.566Z,1.10
2022-11-19T18:43:12.158Z,1.20
2022-11-19T18:45:59.228Z,1.10
2022-11-19T18:48:46.558Z,1.20
2022-11-19T18:51:35.371Z,1.20
2022-11-19T18:54:22.665Z,1.20
2022-11-19T18:57:10.981Z,1.20
2022-11-19T18:59:58.277Z,1.10
2022-11-19T19:02:45.785Z,1.20
2022-11-19T19:05:33.941Z,1.20
2022-11-19T19:08:22.749Z,1.20
2022-11-19T19:11:28.139Z,1.20
2022-11-19T19:14:15.565Z,1.20
2022-11-19T19:17:03.592Z,1.20
2022-11-19T19:19:50.852Z,1.30
2022-11-19T19:22:38.304Z,1.30
2022-11-19T19:25:27.077Z,1.30
2022-11-19T19:28:14.199Z,1.30
2022-11-19T19:31:01.952Z,1.30
2022-11-19T19:33:49.946Z,1.30
2022-11-19T19:36:37.159Z,1.30
2022-11-19T19:39:24.934Z,1.40
2022-11-19T19:42:13.770Z,1.30
2022-11-19T19:45:00.828Z,1.30
2022-11-19T19:47:48.247Z,1.30
2022-11-19T19:50:35.444Z,1.30
2022-11-19T19:53:22.972Z,1.30
2022-11-19T19:56:13.859Z,1.30
2022-11-19T19:59:02.936Z,1.30
2022-11-19T20:01:51.545Z,1.30
2022-11-19T20:04:38.489Z,1.20
2022-11-19T20:07:26.147Z,1.30
2022-11-19T20:10:13.689Z,1.20
2022-11-19T20:13:18.032Z,1.20
2022-11-19T20:16:11.991Z,1.20
2022-11-19T20:19:03.928Z,1.20
2022-11-19T20:21:52.182Z,1.10
2022-11-19T20:24:39.361Z,1.20
2022-11-19T20:27:26.713Z,1.20
2022-11-19T20:30:14.746Z,1.20
2022-11-19T20:33:03.214Z,1.20
2022-11-19T20:35:52.504Z,1.10
2022-11-19T20:38:41.938Z,1.10
2022-11-19T20:41:46.903Z,1.10
2022-11-19T20:44:34.104Z,1.10
2022-11-19T20:47:21.396Z,1.00
2022-11-19T20:50:10.402Z,1.00
2022-11-19T20:52:58.020Z,1.00
2022-11-19T20:56:04.481Z,1.00
2022-11-19T20:58:52.705Z,1.00
2022-11-19T21:01:40.275Z,1.00
2022-11-19T21:04:28.838Z,1.10
2022-11-19T21:07:17.728Z,1.00
2022-11-19T21:10:07.955Z,1.00
2022-11-19T21:13:04.297Z,0.90
2022-11-19T21:15:51.717Z,0.90
2022-11-19T21:18:39.579Z,1.00
2022-11-19T21:21:27.579Z,1.00
2022-11-19T21:24:16.116Z,0.90
2022-11-19T21:27:03.278Z,1.00
2022-11-19T21:29:50.724Z,0.90
2022-11-19T21:32:38.222Z,1.00
2022-11-19T21:35:25.612Z,1.00
2022-11-19T21:38:13.590Z,1.00
2022-11-19T21:41:02.607Z,0.90
2022-11-19T21:43:50.655Z,1.00
2022-11-19T21:46:38.073Z,0.90
2022-11-19T21:49:25.199Z,0.90
2022-11-19T21:52:12.525Z,0.80
2022-11-19T21:54:59.912Z,0.80
2022-11-19T21:57:48.562Z,0.80
2022-11-19T22:00:36.565Z,0.90
2022-11-19T22:03:24.146Z,0.80
2022-11-19T22:06:12.853Z,0.80
2022-11-19T22:09:00.131Z,0.80
2022-11-19T22:11:47.689Z,0.80
2022-11-19T22:14:36.398Z,0.70
2022-11-19T22:17:26.672Z,0.60
2022-11-19T22:20:17.699Z,0.80
2022-11-19T22:23:05.102Z,0.80
2022-11-19T22:25:52.683Z,0.70
2022-11-19T22:28:40.712Z,0.60
2022-11-19T22:31:29.171Z,0.60
2022-11-19T22:34:16.440Z,0.70
2022-11-19T22:37:05.723Z,0.70
2022-11-19T22:39:53.222Z,0.60
2022-11-19T22:42:40.453Z,0.50
2022-11-19T22:45:27.774Z,0.60
2022-11-19T22:48:16.560Z,0.60
2022-11-19T22:51:07.496Z,0.50
2022-11-19T22:53:56.012Z,0.50
2022-11-19T22:56:43.102Z,0.50
2022-11-19T22:59:30.543Z,0.40
2022-11-19T23:02:18.044Z,0.40
2022-11-19T23:05:07.163Z,0.40
2022-11-19T23:07:54.234Z,0.40
2022-11-19T23:10:41.846Z,0.40
2022-11-19T23:13:33.048Z,0.40
2022-11-19T23:16:21.238Z,0.40
2022-11-19T23:19:09.135Z,0.50
2022-11-19T23:21:57.729Z,0.40
2022-11-19T23:24:45.168Z,0.40
2022-11-19T23:27:32.592Z,0.50
2022-11-19T23:30:20.064Z,0.40
2022-11-19T23:33:07.126Z,0.40
2022-11-19T23:35:54.554Z,0.40
2022-11-19T23:38:43.593Z,0.40
2022-11-19T23:41:33.014Z,0.40
2022-11-19T23:44:20.545Z,0.40
2022-11-19T23:47:08.414Z,0.40
2022-11-19T23:49:55.670Z,0.40
2022-11-19T23:52:43.030Z,0.30
2022-11-19T23:55:31.820Z,0.30
2022-11-19T23:58:19.373Z,0.30
